createdAt,value
2022-10-06T00:02:06.365Z,10.09
2022-10-06T00:05:09.134Z,10.00
2022-10-06T00:08:11.691Z,9.96
2022-10-06T00:11:15.820Z,9.81
2022-10-06T00:14:18.238Z,9.84
2022-10-06T00:17:20.912Z,9.82
2022-10-06T00:20:25.863Z,9.86
2022-10-06T00:23:29.079Z,9.78
2022-10-06T00:26:31.558Z,9.80
2022-10-06T00:29:34.247Z,9.74
2022-10-06T00:32:36.947Z,9.66
2022-10-06T00:35:39.818Z,9.63
2022-10-06T00:38:42.369Z,9.59
2022-10-06T00:41:45.232Z,9.53
2022-10-06T00:44:49.655Z,9.46
2022-10-06T00:47:53.896Z,9.33
2022-10-06T00:50:57.496Z,9.27
2022-10-06T00:54:01.048Z,9.26
2022-10-06T00:57:05.162Z,9.16
2022-10-06T01:00:09.228Z,9.06
2022-10-06T01:03:24.908Z,8.95
2022-10-06T01:06:27.819Z,8.85
2022-10-06T01:09:30.955Z,8.78
2022-10-06T01:12:33.927Z,8.72
2022-10-06T01:15:44.740Z,8.70
2022-10-06T01:18:48.557Z,8.70
2022-10-06T01:21:51.276Z,8.71
2022-10-06T01:24:54.127Z,8.65
2022-10-06T01:27:58.296Z,8.64
2022-10-06T01:31:02.158Z,8.54
2022-10-06T01:34:05.926Z,8.54
2022-10-06T01:37:08.643Z,8.57
2022-10-06T01:40:11.387Z,8.53
2022-10-06T01:43:14.534Z,8.46
2022-10-06T01:46:18.005Z,8.43
2022-10-06T01:49:20.799Z,8.51
2022-10-06T01:52:24.060Z,8.46
2022-10-06T01:55:27.580Z,8.45
2022-10-06T01:58:31.441Z,8.45
2022-10-06T02:01:35.913Z,8.45
2022-10-06T02:04:38.756Z,8.45
2022-10-06T02:07:41.656Z,8.37
2022-10-06T02:10:44.375Z,8.33
2022-10-06T02:13:50.201Z,8.24
2022-10-06T02:16:52.992Z,8.25
2022-10-06T02:19:55.502Z,8.19
2022-10-06T02:22:58.363Z,8.23
2022-10-06T02:26:05.512Z,8.28
2022-10-06T02:29:09.791Z,8.30
2022-10-06T02:32:12.329Z,8.29
2022-10-06T02:35:15.433Z,8.14
2022-10-06T02:38:18.427Z,8.23
2022-10-06T02:41:21.232Z,8.18
2022-10-06T02:44:25.110Z,8.11
2022-10-06T02:47:28.133Z,8.04
2022-10-06T02:50:34.808Z,8.02
2022-10-06T02:53:38.615Z,8.01
2022-10-06T02:56:41.089Z,7.95
2022-10-06T02:59:43.807Z,7.87
2022-10-06T03:02:46.423Z,7.85
2022-10-06T03:05:49.217Z,7.86
2022-10-06T03:08:52.608Z,7.85
2022-10-06T03:11:55.400Z,7.82
2022-10-06T03:14:59.569Z,7.81
2022-10-06T03:18:02.433Z,7.79
2022-10-06T03:21:04.911Z,7.78
2022-10-06T03:24:07.856Z,7.72
2022-10-06T03:27:11.840Z,7.70
2022-10-06T03:30:15.571Z,7.75
2022-10-06T03:33:18.265Z,7.75
2022-10-06T03:36:23.639Z,7.84
2022-10-06T03:39:26.293Z,7.76
2022-10-06T03:42:29.048Z,7.82
2022-10-06T03:45:32.194Z,7.85
2022-10-06T03:48:35.497Z,7.78
2022-10-06T03:51:40.468Z,7.69
2022-10-06T03:54:43.672Z,7.77
2022-10-06T03:57:46.637Z,7.74
2022-10-06T04:00:49.562Z,7.69
2022-10-06T04:03:54.204Z,7.64
2022-10-06T04:06:56.793Z,7.63
2022-10-06T04:09:59.696Z,7.63
2022-10-06T04:13:02.489Z,7.66
2022-10-06T04:16:25.542Z,7.67
2022-10-06T04:19:28.079Z,7.67
2022-10-06T04:22:30.849Z,7.71
2022-10-06T04:25:34.185Z,7.76
2022-10-06T04:28:38.797Z,7.78
2022-10-06T04:31:42.610Z,7.83
2022-10-06T04:34:46.249Z,7.84
2022-10-06T04:37:50.072Z,7.86
2022-10-06T04:40:52.910Z,7.88
2022-10-06T04:43:55.732Z,7.92
2022-10-06T04:47:00.635Z,7.98
2022-10-06T04:50:04.445Z,8.01
2022-10-06T04:53:07.232Z,8.05
2022-10-06T04:56:12.426Z,8.11
2022-10-06T04:59:15.288Z,8.17
2022-10-06T05:02:19.820Z,8.19
2022-10-06T05:05:24.156Z,8.21
2022-10-06T05:08:27.979Z,8.23
2022-10-06T05:11:31.963Z,8.25
2022-10-06T05:14:35.347Z,8.29
2022-10-06T05:17:38.933Z,8.34
2022-10-06T05:20:43.056Z,8.40
2022-10-06T05:23:46.620Z,8.43
2022-10-06T05:26:49.387Z,8.53
2022-10-06T05:29:52.480Z,8.58
2022-10-06T05:32:55.143Z,8.72
2022-10-06T05:36:00.370Z,8.76
2022-10-06T05:39:03.415Z,8.86
2022-10-06T05:42:07.596Z,8.89
2022-10-06T05:45:10.605Z,8.92
2022-10-06T05:48:13.501Z,8.98
2022-10-06T05:51:17.880Z,9.05
2022-10-06T05:54:20.983Z,9.07
2022-10-06T05:57:24.272Z,9.13
2022-10-06T06:00:27.212Z,9.08
2022-10-06T06:03:29.991Z,9.22
2022-10-06T06:06:38.476Z,9.30
2022-10-06T06:09:42.138Z,9.33
2022-10-06T06:12:47.870Z,9.36
2022-10-06T06:16:04.325Z,9.42
2022-10-06T06:19:08.764Z,9.44
2022-10-06T06:22:12.383Z,9.50
2022-10-06T06:25:15.474Z,9.60
2022-10-06T06:28:18.886Z,9.67
2022-10-06T06:31:26.673Z,9.71
2022-10-06T06:34:30.169Z,9.81
2022-10-06T06:37:33.391Z,9.88
2022-10-06T06:40:40.837Z,10.01
2022-10-06T06:43:44.246Z,10.12
2022-10-06T06:46:49.385Z,10.18
2022-10-06T06:49:52.967Z,10.36
2022-10-06T06:52:55.990Z,10.52
2022-10-06T06:55:58.518Z,10.69
2022-10-06T06:59:03.303Z,10.86
2022-10-06T07:02:06.322Z,10.91
2022-10-06T07:05:11.595Z,11.36
2022-10-06T07:08:16.114Z,11.61
2022-10-06T07:11:50.268Z,12.00
2022-10-06T07:15:11.598Z,12.24
2022-10-06T07:18:33.619Z,12.84
2022-10-06T07:21:55.251Z,13.13
2022-10-06T07:25:11.823Z,14.14
2022-10-06T07:28:17.200Z,16.43
2022-10-06T07:31:20.522Z,17.94
2022-10-06T07:34:23.658Z,18.34
2022-10-06T07:37:28.950Z,17.36
2022-10-06T07:40:33.133Z,18.53
2022-10-06T07:43:36.036Z,19.02
2022-10-06T07:46:38.857Z,19.37
2022-10-06T07:49:43.087Z,19.42
2022-10-06T07:52:47.712Z,20.32
2022-10-06T07:55:50.674Z,19.47
2022-10-06T07:58:53.523Z,19.48
2022-10-06T08:01:56.436Z,19.91
2022-10-06T08:04:59.357Z,21.21
2022-10-06T08:08:02.477Z,20.63
2022-10-06T08:11:06.008Z,21.57
2022-10-06T08:14:09.478Z,21.96
2022-10-06T08:17:12.252Z,20.80
2022-10-06T08:20:14.868Z,22.75
2022-10-06T08:23:17.685Z,22.53
2022-10-06T08:26:21.646Z,23.04
2022-10-06T08:29:24.436Z,22.69
2022-10-06T08:32:27.074Z,22.55
2022-10-06T08:35:32.815Z,21.20
2022-10-06T08:38:38.757Z,21.47
2022-10-06T08:41:48.532Z,22.45
2022-10-06T08:44:57.649Z,23.48
2022-10-06T08:48:04.579Z,24.40
2022-10-06T08:51:30.059Z,22.94
2022-10-06T08:54:45.821Z,21.12
2022-10-06T09:01:25.584Z,23.65
2022-10-06T09:04:30.179Z,22.27
2022-10-06T09:07:43.968Z,24.95
2022-10-06T09:11:02.018Z,24.20
2022-10-06T09:14:14.189Z,23.41
2022-10-06T09:17:28.021Z,26.17
2022-10-06T09:20:42.961Z,23.79
2022-10-06T09:23:53.483Z,25.96
2022-10-06T09:26:58.097Z,25.92
2022-10-06T09:30:05.007Z,24.42
2022-10-06T09:33:17.002Z,25.40
2022-10-06T09:36:19.664Z,25.86
2022-10-06T09:39:27.806Z,26.47
2022-10-06T09:42:35.790Z,25.06
2022-10-06T09:45:38.670Z,24.25
2022-10-06T09:48:41.794Z,26.37
2022-10-06T09:52:02.931Z,26.44
2022-10-06T09:55:28.059Z,28.11
2022-10-06T09:58:37.997Z,25.21
2022-10-06T10:01:42.185Z,25.98
2022-10-06T10:04:48.386Z,27.65
2022-10-06T10:08:23.216Z,24.72
2022-10-06T10:11:46.994Z,27.60
2022-10-06T10:14:49.470Z,26.56
2022-10-06T10:17:54.003Z,26.29
2022-10-06T10:21:00.490Z,24.90
2022-10-06T10:24:06.737Z,25.36
2022-10-06T10:27:14.792Z,27.72
2022-10-06T10:30:18.218Z,26.17
2022-10-06T10:33:54.163Z,27.21
2022-10-06T10:37:39.847Z,27.38
2022-10-06T10:40:51.562Z,25.56
2022-10-06T10:44:08.492Z,27.69
2022-10-06T10:47:25.980Z,25.98
2022-10-06T10:50:32.999Z,25.94
2022-10-06T10:54:10.711Z,23.96
2022-10-06T10:57:17.265Z,25.85
2022-10-06T11:00:28.215Z,27.90
2022-10-06T11:03:31.143Z,25.51
2022-10-06T11:06:54.120Z,25.79
2022-10-06T11:09:56.857Z,25.90
2022-10-06T11:13:20.562Z,26.76
2022-10-06T11:16:23.603Z,26.35
2022-10-06T11:19:41.485Z,24.99
2022-10-06T11:22:55.245Z,24.42
2022-10-06T11:26:09.996Z,24.52
2022-10-06T11:29:17.225Z,25.27
2022-10-06T11:32:41.739Z,24.03
2022-10-06T11:35:46.140Z,23.25
2022-10-06T11:38:58.683Z,22.43
2022-10-06T11:42:46.756Z,22.24
2022-10-06T11:46:11.386Z,21.93
2022-10-06T11:49:29.405Z,21.59
2022-10-06T11:52:31.921Z,21.37
2022-10-06T11:55:35.156Z,21.42
2022-10-06T11:58:56.399Z,21.31
2022-10-06T12:01:59.323Z,21.28
2022-10-06T12:05:48.282Z,21.39
2022-10-06T12:08:42.182Z,21.39
2022-10-06T12:11:45.516Z,21.36
2022-10-06T12:18:38.068Z,21.33
2022-10-06T12:21:45.700Z,21.27
2022-10-06T12:24:59.200Z,21.32
2022-10-06T12:28:21.124Z,21.25
2022-10-06T12:31:46.757Z,21.17
2022-10-06T12:34:57.568Z,21.02
2022-10-06T12:38:06.156Z,20.90
2022-10-06T12:41:11.354Z,20.84
2022-10-06T12:44:23.379Z,20.86
2022-10-06T12:47:34.642Z,20.82
2022-10-06T12:50:38.071Z,20.79
2022-10-06T12:53:48.607Z,20.82
2022-10-06T12:57:18.334Z,20.88
2022-10-06T13:00:42.525Z,20.88
2022-10-06T13:03:49.723Z,20.81
2022-10-06T13:06:52.261Z,20.78
2022-10-06T13:10:10.331Z,20.74
2022-10-06T13:13:24.486Z,20.71
2022-10-06T13:16:39.443Z,20.60
2022-10-06T13:19:44.288Z,20.65
2022-10-06T13:22:55.529Z,20.59
2022-10-06T13:26:06.129Z,20.47
2022-10-06T13:29:35.147Z,20.44
2022-10-06T13:32:37.944Z,20.40
2022-10-06T13:35:40.835Z,20.40
2022-10-06T13:38:43.348Z,20.33
2022-10-06T13:41:49.497Z,20.39
2022-10-06T13:44:58.977Z,20.42
2022-10-06T13:48:03.895Z,20.51
2022-10-06T13:51:06.624Z,20.64
2022-10-06T13:54:24.966Z,20.72
2022-10-06T13:57:40.125Z,20.84
2022-10-06T14:00:50.754Z,20.85
2022-10-06T14:04:18.433Z,20.78
2022-10-06T14:07:22.120Z,20.74
2022-10-06T14:10:31.313Z,20.71
2022-10-06T14:13:53.201Z,20.56
2022-10-06T14:16:56.036Z,20.45
2022-10-06T14:19:59.032Z,20.36
2022-10-06T14:23:01.924Z,20.26
2022-10-06T14:26:04.310Z,20.35
2022-10-06T14:29:07.201Z,20.29
2022-10-06T14:32:14.108Z,20.34
2022-10-06T14:35:16.858Z,20.30
2022-10-06T14:38:20.290Z,20.32
2022-10-06T14:41:27.865Z,20.25
2022-10-06T14:44:31.161Z,20.17
2022-10-06T14:47:33.869Z,20.07
2022-10-06T14:50:36.615Z,20.00
2022-10-06T14:53:39.565Z,19.92
2022-10-06T14:56:42.490Z,19.81
2022-10-06T14:59:45.451Z,19.70
2022-10-06T15:02:48.127Z,19.70
2022-10-06T15:06:11.081Z,19.71
2022-10-06T15:09:14.158Z,19.71
2022-10-06T15:12:17.855Z,19.73
2022-10-06T15:15:23.604Z,19.70
2022-10-06T15:18:26.298Z,19.67
2022-10-06T15:21:31.398Z,19.67
2022-10-06T15:24:34.110Z,19.63
2022-10-06T15:27:54.858Z,19.65
2022-10-06T15:30:57.835Z,19.66
2022-10-06T15:34:02.062Z,19.64
2022-10-06T15:37:05.233Z,19.58
2022-10-06T15:40:08.059Z,19.55
2022-10-06T15:43:11.077Z,19.44
2022-10-06T15:46:13.543Z,19.34
2022-10-06T15:49:20.664Z,19.29
2022-10-06T15:52:23.181Z,19.17
2022-10-06T15:55:26.235Z,19.02
2022-10-06T15:58:28.668Z,18.95
2022-10-06T16:01:34.311Z,18.79
2022-10-06T16:04:38.427Z,18.66
2022-10-06T16:07:40.912Z,18.45
2022-10-06T16:10:49.711Z,18.26
2022-10-06T16:13:52.314Z,18.03
2022-10-06T16:16:59.880Z,17.88
2022-10-06T16:20:02.404Z,17.70
2022-10-06T16:23:05.232Z,17.57
2022-10-06T16:26:07.672Z,17.43
2022-10-06T16:29:10.429Z,17.26
2022-10-06T16:32:12.915Z,17.13
2022-10-06T16:35:18.380Z,16.97
2022-10-06T16:38:21.047Z,16.82
2022-10-06T16:41:24.024Z,16.70
2022-10-06T16:44:26.500Z,16.55
2022-10-06T16:47:29.240Z,16.43
2022-10-06T16:50:32.115Z,16.30
2022-10-06T16:53:42.734Z,16.07
2022-10-06T16:56:53.922Z,16.07
2022-10-06T16:59:56.617Z,15.96
2022-10-06T17:02:59.098Z,15.86
2022-10-06T17:06:07.467Z,15.77
2022-10-06T17:09:17.954Z,15.70
2022-10-06T17:12:20.677Z,15.61
2022-10-06T17:15:23.085Z,15.53
2022-10-06T17:18:26.257Z,15.43
2022-10-06T17:21:46.867Z,15.36
2022-10-06T17:24:50.287Z,15.31
2022-10-06T17:27:52.719Z,15.24
2022-10-06T17:30:59.364Z,15.17
2022-10-06T17:34:03.794Z,15.04
2022-10-06T17:37:06.969Z,15.00
2022-10-06T17:40:09.578Z,14.88
2022-10-06T17:43:12.715Z,14.76
2022-10-06T17:46:18.964Z,14.68
2022-10-06T17:49:22.555Z,14.60
2022-10-06T17:52:25.016Z,14.53
2022-10-06T17:55:28.117Z,14.62
2022-10-06T17:58:30.596Z,14.63
2022-10-06T18:01:35.722Z,14.79
2022-10-06T18:04:39.105Z,14.63
2022-10-06T18:07:41.742Z,14.64
2022-10-06T18:11:06.685Z,14.47
2022-10-06T18:14:10.112Z,14.34
2022-10-06T18:17:12.834Z,14.25
2022-10-06T18:20:16.096Z,14.13
2022-10-06T18:23:18.822Z,14.05
2022-10-06T18:26:21.383Z,14.00
2022-10-06T18:29:25.867Z,13.88
2022-10-06T18:33:45.068Z,13.91
2022-10-06T18:36:15.100Z,13.77
2022-10-06T18:39:18.291Z,13.64
2022-10-06T18:42:21.033Z,13.66
2022-10-06T18:45:42.201Z,13.61
2022-10-06T18:49:00.275Z,13.59
2022-10-06T18:52:03.277Z,13.52
2022-10-06T18:55:06.257Z,13.40
2022-10-06T18:58:08.739Z,13.33
2022-10-06T19:01:12.630Z,13.28
2022-10-06T19:04:20.159Z,13.23
2022-10-06T19:07:22.939Z,13.19
2022-10-06T19:10:27.392Z,13.15
2022-10-06T19:13:30.158Z,13.06
2022-10-06T19:16:32.721Z,13.05
2022-10-06T19:19:35.759Z,12.99
2022-10-06T19:22:38.671Z,12.95
2022-10-06T19:25:41.406Z,12.92
2022-10-06T19:28:43.962Z,12.83
2022-10-06T19:31:48.046Z,12.76
2022-10-06T19:34:50.623Z,12.73
2022-10-06T19:37:53.390Z,12.69
2022-10-06T19:41:17.111Z,12.62
2022-10-06T19:44:19.816Z,12.67
2022-10-06T19:47:22.489Z,12.57
2022-10-06T19:50:27.233Z,12.55
2022-10-06T19:53:30.693Z,12.46
2022-10-06T19:56:33.721Z,12.41
2022-10-06T19:59:36.764Z,12.37
2022-10-06T20:02:42.794Z,12.38
2022-10-06T20:05:46.205Z,12.34
2022-10-06T20:08:48.694Z,12.36
2022-10-06T20:11:51.730Z,12.31
2022-10-06T20:14:54.173Z,12.24
2022-10-06T20:17:56.871Z,12.20
2022-10-06T20:20:59.295Z,12.15
2022-10-06T20:24:07.459Z,12.13
2022-10-06T20:27:10.277Z,12.10
2022-10-06T20:30:13.483Z,12.08
2022-10-06T20:33:17.421Z,12.07
2022-10-06T20:36:20.262Z,12.19
2022-10-06T20:39:42.013Z,12.12
2022-10-06T20:42:49.209Z,12.05
2022-10-06T20:45:53.739Z,11.98
2022-10-06T20:48:56.747Z,11.97
2022-10-06T20:51:59.356Z,11.95
2022-10-06T20:55:02.097Z,11.90
2022-10-06T20:58:04.566Z,11.87
2022-10-06T21:01:12.732Z,11.93
2022-10-06T21:04:15.410Z,11.80
2022-10-06T21:07:18.572Z,11.77
2022-10-06T21:10:22.713Z,11.71
2022-10-06T21:13:25.914Z,11.84
2022-10-06T21:16:33.513Z,11.82
2022-10-06T21:19:37.913Z,11.80
2022-10-06T21:22:40.538Z,11.77
2022-10-06T21:25:43.267Z,11.74
2022-10-06T21:28:46.249Z,11.76
2022-10-06T21:31:49.011Z,11.81
2022-10-06T21:34:55.924Z,11.92
2022-10-06T21:37:58.662Z,12.02
2022-10-06T21:41:02.628Z,11.95
2022-10-06T21:44:06.636Z,11.79
2022-10-06T21:47:09.190Z,11.69
2022-10-06T21:50:12.785Z,11.67
2022-10-06T21:53:15.267Z,11.69
2022-10-06T21:56:18.439Z,11.78
2022-10-06T21:59:21.223Z,11.82
2022-10-06T22:02:24.004Z,11.87
2022-10-06T22:05:26.809Z,11.95
2022-10-06T22:08:34.652Z,12.00
2022-10-06T22:11:39.181Z,11.99
2022-10-06T22:14:41.990Z,11.89
2022-10-06T22:17:46.784Z,11.96
2022-10-06T22:20:49.627Z,12.08
2022-10-06T22:24:00.412Z,12.22
2022-10-06T22:27:03.185Z,12.24
2022-10-06T22:30:08.297Z,12.23
2022-10-06T22:33:10.954Z,12.15
2022-10-06T22:36:13.983Z,12.09
2022-10-06T22:39:16.595Z,12.07
2022-10-06T22:42:19.414Z,12.06
2022-10-06T22:45:21.916Z,12.02
2022-10-06T22:48:25.054Z,11.93
2022-10-06T22:51:29.881Z,11.88
2022-10-06T22:54:32.611Z,11.87
2022-10-06T22:57:35.103Z,11.89
2022-10-06T23:00:38.005Z,11.87
2022-10-06T23:03:41.002Z,11.93
2022-10-06T23:06:43.765Z,12.03
2022-10-06T23:09:46.243Z,11.89
2022-10-06T23:12:54.065Z,11.89
2022-10-06T23:16:06.497Z,11.89
2022-10-06T23:19:10.646Z,11.88
2022-10-06T23:22:13.243Z,11.92
2022-10-06T23:25:15.978Z,11.83
2022-10-06T23:28:18.635Z,11.82
2022-10-06T23:31:21.994Z,11.76
2022-10-06T23:34:24.639Z,11.77
2022-10-06T23:37:27.427Z,11.75
2022-10-06T23:40:30.349Z,11.75
2022-10-06T23:43:33.602Z,11.77
2022-10-06T23:46:36.031Z,11.75
2022-10-06T23:49:38.789Z,11.78
2022-10-06T23:52:41.763Z,11.81
2022-10-06T23:55:44.509Z,11.80
2022-10-06T23:58:47.129Z,11.79
